Weather reports worldwide

Advertisment
Grazalema, Spain (8455): temperature & dewpoint: 16.02.2019 22:00:00 - 22.02.2019 22:00:00 (CET)Grazalema, Spain (8455): wind speed & gusts: 16.02.2019 22:00:00 - 22.02.2019 22:00:00 (CET)Grazalema, Spain (8455): wind direction: 16.02.2019 22:00:00 - 22.02.2019 22:00:00 (CET)Grazalema, Spain (8455): precipitation: 16.02.2019 22:00:00 - 22.02.2019 22:00:00 (CET)
Date & Time tt [°C] td [°C] ff [km/h] ff [kn] fx [km/h] fx [kn] dd rr [mm]
22.02.2019 22:00:00 6,4 0,6 6 4 11 6 W 0,0
22.02.2019 21:00:00 6,7 0,4 8 4 11 6 W 0,0
22.02.2019 20:00:00 7,7 1,3 8 4 12 6 W 0,0
22.02.2019 19:00:00 9,8 1,5 7 4 11 6 W -
22.02.2019 18:00:00 13,7 1,1 1 1 16 9 S 0,0
22.02.2019 17:00:00 16,5 1,7 5 3 16 9 SSE 0,0
22.02.2019 16:00:00 16,8 2,1 7 4 22 12 ESE 0,0
22.02.2019 15:00:00 17,0 2,3 9 5 19 10 ENE 0,0
22.02.2019 14:00:00 17,0 2,3 8 4 19 11 ENE 0,0
22.02.2019 13:00:00 16,5 2,1 9 5 23 12 ENE -
22.02.2019 12:00:00 16,3 1,9 9 5 22 12 ENE 0,0
22.02.2019 11:00:00 15,1 1,3 8 4 27 15 ENE 0,0
22.02.2019 10:00:00 13,6 0,0 8 4 31 17 SSE 0,0
22.02.2019 09:00:00 12,9 -0,7 8 4 27 15 E 0,0
22.02.2019 08:00:00 11,4 -1,0 8 4 24 13 E 0,0
22.02.2019 07:00:00 11,2 -1,2 8 5 26 14 ESE -
22.02.2019 06:00:00 11,3 -1,2 7 4 27 15 ESE 0,0
22.02.2019 05:00:00 11,2 -2,0 10 5 - - SE -
22.02.2019 04:00:00 11,0 -1,2 6 3 26 14 SE 0,0
22.02.2019 03:00:00 11,4 -0,7 6 3 26 14 SE 0,0
22.02.2019 02:00:00 11,2 -0,7 7 4 23 12 ESE 0,0
22.02.2019 01:00:00 11,8 -0,5 7 4 21 11 ESE -
22.02.2019 00:00:00 12,0 -0,3 7 4 24 13 SE 0,0
21.02.2019 23:00:00 12,2 0,0 5 3 21 11 ESE 0,0
21.02.2019 22:00:00 12,3 0,0 6 3 22 12 SE 0,0
21.02.2019 21:00:00 12,2 0,6 5 3 24 13 E 0,0
21.02.2019 20:00:00 11,9 0,6 8 4 19 11 SE 0,0
21.02.2019 19:00:00 11,9 1,3 4 2 19 11 ESE -
21.02.2019 18:00:00 12,7 2,3 4 2 14 7 NW 0,0
21.02.2019 17:00:00 14,2 3,4 2 1 12 7 ENE 0,0
21.02.2019 16:00:00 15,0 4,1 2 1 18 10 E 0,0
21.02.2019 15:00:00 14,3 3,4 10 5 19 10 E 0,0
21.02.2019 14:00:00 14,1 3,2 8 5 17 9 NE 0,0
21.02.2019 13:00:00 14,0 3,4 8 5 19 10 NE -
21.02.2019 12:00:00 12,6 2,1 3 2 28 15 N 0,0
21.02.2019 11:00:00 12,1 1,5 10 5 33 18 NE 0,0
21.02.2019 10:00:00 11,4 1,1 11 6 24 13 NE 0,0
21.02.2019 09:00:00 10,6 0,0 9 5 25 13 SE 0,0
21.02.2019 08:00:00 10,3 -0,7 12 7 27 14 SSE 0,0
21.02.2019 07:00:00 10,4 -1,7 7 4 23 12 ESE -
21.02.2019 06:00:00 10,8 -1,7 6 4 25 13 ESE 0,0
21.02.2019 05:00:00 10,5 -1,4 8 4 25 14 SE 0,0
21.02.2019 04:00:00 10,2 -1,2 8 4 27 14 ESE 0,0
21.02.2019 03:00:00 10,3 -0,7 10 5 27 15 SSE 0,0
21.02.2019 02:00:00 10,4 -1,0 7 4 24 13 E 0,0
21.02.2019 01:00:00 10,3 -1,2 7 4 26 14 ENE -
21.02.2019 00:00:00 10,0 -1,2 9 5 30 16 ENE 0,0
20.02.2019 23:00:00 9,7 -1,7 13 7 29 15 E 0,0
20.02.2019 22:00:00 8,9 -1,4 5 3 26 14 E 0,0
20.02.2019 21:00:00 9,9 -2,2 16 9 28 15 E 0,0
20.02.2019 20:00:00 9,8 1,7 6 4 15 8 SSE 0,0
20.02.2019 19:00:00 8,6 2,7 3 1 6 4 W -
20.02.2019 18:00:00 11,4 1,9 1 1 9 5 SSE 0,0
20.02.2019 17:00:00 12,8 0,4 6 3 16 9 E 0,0
20.02.2019 16:00:00 12,8 1,7 12 6 22 12 E 0,0
20.02.2019 15:00:00 13,8 3,0 9 5 21 12 ENE 0,0
20.02.2019 14:00:00 13,9 2,7 6 3 17 9 ENE 0,0
20.02.2019 13:00:00 13,1 3,4 7 4 20 11 NE -
20.02.2019 12:00:00 11,6 3,6 9 5 22 12 NE 0,0
20.02.2019 11:00:00 11,1 4,3 6 3 20 11 SE 0,0
20.02.2019 10:00:00 9,7 5,5 8 5 22 12 S 0,0
20.02.2019 09:00:00 8,2 5,3 5 3 19 11 S 0,0
20.02.2019 08:00:00 5,3 3,2 4 2 13 7 W 0,0
20.02.2019 07:00:00 5,9 4,5 5 3 11 6 SW -
20.02.2019 06:00:00 5,7 4,3 1 1 14 7 SE 0,0
20.02.2019 05:00:00 5,3 4,1 5 3 15 8 SSW 0,0
20.02.2019 04:00:00 4,3 3,4 6 3 11 6 W 0,0
20.02.2019 03:00:00 4,7 3,6 5 3 12 6 W 0,0
20.02.2019 02:00:00 4,6 3,6 6 3 10 5 W 0,0
20.02.2019 01:00:00 5,2 4,1 6 3 10 5 W -
20.02.2019 00:00:00 6,1 5,0 5 3 8 4 W 0,0
19.02.2019 23:00:00 8,7 6,8 0 0 3 1 SSE 0,0
19.02.2019 22:00:00 8,4 6,4 1 1 6 3 W 0,0
19.02.2019 21:00:00 7,6 5,1 3 2 7 4 W 0,0
19.02.2019 20:00:00 9,6 5,1 3 2 14 7 NW 0,0
19.02.2019 19:00:00 10,0 4,3 3 2 10 5 W -
19.02.2019 18:00:00 11,4 4,6 4 2 13 7 W 0,0
19.02.2019 17:00:00 13,1 3,9 6 4 12 6 E 0,0
19.02.2019 16:00:00 13,4 2,7 1 1 13 7 S 0,0
19.02.2019 15:00:00 14,2 2,1 6 3 17 9 ENE 0,0
19.02.2019 14:00:00 13,8 2,1 5 3 20 11 NE 0,0
19.02.2019 13:00:00 13,5 2,5 7 4 16 9 ENE -
19.02.2019 12:00:00 12,1 2,9 6 3 12 6 E 0,0
19.02.2019 11:00:00 10,7 4,1 5 3 13 7 E 0,0
19.02.2019 10:00:00 9,3 5,0 5 3 8 4 E 0,0
19.02.2019 09:00:00 5,1 3,9 4 2 9 5 W 0,0
19.02.2019 08:00:00 3,6 2,5 6 3 9 5 W 0,0
19.02.2019 07:00:00 4,6 2,9 6 3 8 4 W -
19.02.2019 06:00:00 5,9 3,8 3 2 7 4 WNW 0,0
19.02.2019 05:00:00 7,2 4,1 4 2 6 3 W 0,0
19.02.2019 04:00:00 6,8 3,2 4 2 6 3 W 0,0
19.02.2019 03:00:00 8,0 2,9 1 0 7 4 W 0,0
19.02.2019 02:00:00 8,3 3,2 4 2 7 4 W 0,0
19.02.2019 01:00:00 8,5 2,3 6 3 14 7 WNW -
19.02.2019 00:00:00 9,2 1,9 0 0 13 7 N 0,0
18.02.2019 23:00:00 8,9 2,7 1 1 22 12 NE 0,0
18.02.2019 22:00:00 9,5 4,1 4 2 14 8 ESE 0,0
18.02.2019 21:00:00 8,9 4,6 5 3 9 5 W 0,0
18.02.2019 20:00:00 8,7 4,5 3 2 7 4 W 0,0
18.02.2019 19:00:00 9,8 4,3 1 1 8 4 W -
18.02.2019 18:00:00 11,0 4,5 3 2 13 7 NE 0,0
18.02.2019 17:00:00 11,7 4,6 6 3 16 9 E 0,0
18.02.2019 16:00:00 12,2 5,1 7 4 14 8 ENE 0,0
18.02.2019 15:00:00 12,0 5,1 8 4 24 13 ENE 0,0
18.02.2019 14:00:00 11,6 5,5 12 7 24 13 ENE 0,0
18.02.2019 13:00:00 11,9 5,9 10 5 24 13 ENE -
18.02.2019 12:00:00 10,9 5,8 11 6 29 15 ENE 0,0
18.02.2019 11:00:00 9,7 5,5 11 6 26 14 ENE 0,0
18.02.2019 10:00:00 9,6 5,5 7 4 29 15 E 0,0
18.02.2019 09:00:00 8,2 4,6 9 5 33 18 SE 0,0
18.02.2019 08:00:00 8,2 5,0 11 6 30 16 ENE 0,0
18.02.2019 07:00:00 7,3 4,6 2 1 16 9 WSW -
18.02.2019 06:00:00 5,7 2,5 4 2 12 6 W 0,0
18.02.2019 05:00:00 6,2 1,9 5 3 11 6 W 0,0
18.02.2019 04:00:00 8,6 1,1 2 1 10 5 NNW 0,0
18.02.2019 03:00:00 11,1 0,2 1 0 18 10 NNE 0,0
18.02.2019 02:00:00 7,4 0,2 2 1 16 9 W 0,0
18.02.2019 01:00:00 10,3 0,9 13 7 28 15 E -
18.02.2019 00:00:00 5,6 0,6 6 3 17 9 W 0,0
17.02.2019 23:00:00 6,0 0,6 8 4 11 6 W 0,0
17.02.2019 22:00:00 6,8 1,3 8 4 13 7 W 0,0
17.02.2019 21:00:00 6,6 2,7 6 4 11 6 W 0,0
17.02.2019 20:00:00 7,4 4,1 6 3 11 6 W 0,0
17.02.2019 19:00:00 9,6 6,1 6 3 9 5 W -
17.02.2019 18:00:00 12,6 5,5 0 0 8 5 S 0,0
17.02.2019 17:00:00 14,5 5,6 5 3 15 8 NE 0,0
17.02.2019 16:00:00 15,3 5,5 5 3 16 9 W 0,0
17.02.2019 15:00:00 15,1 5,3 7 4 17 9 WSW 0,0
17.02.2019 14:00:00 16,5 5,1 6 3 12 7 ENE 0,0
17.02.2019 13:00:00 15,3 5,0 6 3 14 8 W -
17.02.2019 12:00:00 14,7 4,3 4 2 11 6 ENE 0,0
17.02.2019 11:00:00 13,5 3,0 2 1 9 5 NNW 0,0
17.02.2019 10:00:00 11,8 2,3 1 1 9 5 ENE 0,0
17.02.2019 09:00:00 6,8 -0,7 6 3 12 6 WNW 0,0
17.02.2019 08:00:00 5,7 -2,7 6 3 13 7 W 0,0
17.02.2019 07:00:00 11,7 -1,7 5 3 22 12 S -
17.02.2019 06:00:00 9,6 -1,0 5 3 16 9 S 0,0
17.02.2019 05:00:00 7,8 -1,2 4 2 24 13 W 0,0
17.02.2019 04:00:00 9,9 0,9 8 4 32 17 ESE 0,0
17.02.2019 03:00:00 7,1 1,3 4 2 29 15 WNW 0,0
17.02.2019 02:00:00 8,9 2,7 6 4 30 16 SSE 0,0
17.02.2019 01:00:00 8,5 1,7 5 3 25 13 ENE -
17.02.2019 00:00:00 9,1 1,5 3 2 19 11 NNW 0,0
16.02.2019 23:00:00 8,0 0,9 6 3 34 18 NW 0,0
16.02.2019 22:00:00 7,9 1,3 12 6 29 15 ENE 0,0

tt = temperature
td = dewpoint
ff = wind speed
fx = gusts
dd = wind direction
rr = precipitation

Next stations